Aeroporto :
LOGIN :

Iscrizione | Disclaimer

   EN    FR    IT 

 










Sommario :    VFR   VFR Marginale   IFR   IFR Intensivo   IFR Molto Intensivo
Visibilità : 
Base nubi : 
>= 8 km
>= 3000ft
5 / 8 km
1000 / 3000 ft
1500m / 5 km
500 / 1000 ft
800 / 1500m
200 / 500 ft
< 800m
< 200 ft
Simboli :   Temporali  Nebbia  Neve Forte  Precipitazioni Forti  Vento > 20 kt
SIGMETs :   Varie  Temporali  Ghiacco  Turbolenza  Onda orograficha  Ceneri Vulcaniche







- Altitudine del aeroporto : 1367 ft
- Codice IATA : FDH


EDNY - Friedrichshafen

ULTIMO METAR :
  • 220620Z VRB02KT CAVOK 12/09 Q1018

METARs OBSOLETI :
  • 220550Z AUTO 07003KT 9999 // NCD 10/08 Q1018
  • 220520Z AUTO VRB02KT 9999 // NCD 08/07 Q1018
  • 220450Z AUTO VRB02KT 9999 // NCD 07/06 Q1018
  • 220420Z AUTO 06003KT 9999 // NCD 08/06 Q1018
  • 220350Z 00000KT CAVOK 08/06 Q1017

TAF TAF EDNY
Valido dal 22 a 06 ore il 23 a 06 ore UTC


220500Z 2206/2306 06003KT CAVOK
BECMG 2208/2210 23005KT
BECMG 2218/2220 VRB03KT
Nessun NOTAM noto per questo aeroporto.



MetMap, La meteo Aeronautica in un colpo d'occhio ! - Copyright ORBIFLY Dicembre 2007 - Disclaimer

ORBIFLY MET'MAP TEAM :

Programmazione e sviluppo : Alexandra Zaïnal
Concezione e sviluppo : Baudouin d'Aumeries
Co-Programmazione e sviluppo : Marc-Olivier Méhu
Supporto tecnico e logistico : Manuel Goepfert
Aiuto per la traduzione : Arnaldo La Scala

Contatto : metmap@orbifly.com




FONTI E CREDITI :

   NOAA